sensor_id;sensor_type;location;lat;lon;timestamp;pressure;altitude;pressure_sealevel;temperature;humidity
10668;BME280;5382;42.136;24.796;2024-02-14T00:00:42;99528.66;;;9.20;100.00
10668;BME280;5382;42.136;24.796;2024-02-14T00:03:09;99537.72;;;9.16;100.00
10668;BME280;5382;42.136;24.796;2024-02-14T00:05:36;99504.22;;;8.92;100.00
10668;BME280;5382;42.136;24.796;2024-02-14T00:08:07;99543.66;;;9.20;100.00
10668;BME280;5382;42.136;24.796;2024-02-14T00:10:35;99540.19;;;9.19;100.00
10668;BME280;5382;42.136;24.796;2024-02-14T00:13:02;99546.06;;;9.23;100.00
10668;BME280;5382;42.136;24.796;2024-02-14T00:15:29;99526.28;;;9.04;100.00
10668;BME280;5382;42.136;24.796;2024-02-14T00:17:57;99549.88;;;9.18;100.00
10668;BME280;5382;42.136;24.796;2024-02-14T00:20:24;99547.97;;;9.21;100.00
10668;BME280;5382;42.136;24.796;2024-02-14T00:22:51;99552.50;;;9.18;100.00
10668;BME280;5382;42.136;24.796;2024-02-14T00:25:19;99559.25;;;9.23;100.00
10668;BME280;5382;42.136;24.796;2024-02-14T00:27:46;99558.44;;;9.22;100.00
10668;BME280;5382;42.136;24.796;2024-02-14T00:30:13;99547.13;;;9.20;100.00
10668;BME280;5382;42.136;24.796;2024-02-14T00:32:40;99572.25;;;9.26;100.00
10668;BME280;5382;42.136;24.796;2024-02-14T00:35:08;99558.66;;;9.19;100.00
10668;BME280;5382;42.136;24.796;2024-02-14T00:37:35;99512.88;;;8.94;100.00
10668;BME280;5382;42.136;24.796;2024-02-14T00:40:03;99565.38;;;9.23;100.00
10668;BME280;5382;42.136;24.796;2024-02-14T00:42:32;99571.13;;;9.17;100.00
10668;BME280;5382;42.136;24.796;2024-02-14T00:45:00;99547.44;;;9.15;100.00
10668;BME280;5382;42.136;24.796;2024-02-14T00:47:28;99565.63;;;9.20;100.00
10668;BME280;5382;42.136;24.796;2024-02-14T00:49:55;99564.78;;;9.20;100.00
10668;BME280;5382;42.136;24.796;2024-02-14T00:52:23;99556.94;;;9.18;100.00
10668;BME280;5382;42.136;24.796;2024-02-14T00:54:50;99513.44;;;8.87;100.00
10668;BME280;5382;42.136;24.796;2024-02-14T00:57:17;99563.63;;;9.11;100.00
10668;BME280;5382;42.136;24.796;2024-02-14T00:59:46;99494.25;;;8.72;100.00
10668;BME280;5382;42.136;24.796;2024-02-14T01:02:13;99536.00;;;9.04;100.00
10668;BME280;5382;42.136;24.796;2024-02-14T01:04:40;99567.50;;;9.18;100.00
10668;BME280;5382;42.136;24.796;2024-02-14T01:07:07;99558.69;;;9.06;100.00
10668;BME280;5382;42.136;24.796;2024-02-14T01:09:34;99569.53;;;9.14;100.00
10668;BME280;5382;42.136;24.796;2024-02-14T01:12:02;99555.41;;;9.03;100.00
10668;BME280;5382;42.136;24.796;2024-02-14T01:14:30;99558.97;;;9.14;100.00
10668;BME280;5382;42.136;24.796;2024-02-14T01:16:58;99568.69;;;9.14;100.00
10668;BME280;5382;42.136;24.796;2024-02-14T01:19:25;99538.25;;;8.84;100.00
10668;BME280;5382;42.136;24.796;2024-02-14T01:21:55;99566.78;;;9.16;100.00
10668;BME280;5382;42.136;24.796;2024-02-14T01:24:23;99579.97;;;9.16;100.00
10668;BME280;5382;42.136;24.796;2024-02-14T01:26:52;99586.13;;;9.16;100.00
10668;BME280;5382;42.136;24.796;2024-02-14T01:29:20;99577.22;;;9.17;100.00
10668;BME280;5382;42.136;24.796;2024-02-14T01:31:47;99560.25;;;9.09;100.00
10668;BME280;5382;42.136;24.796;2024-02-14T01:34:16;99567.75;;;9.15;100.00
10668;BME280;5382;42.136;24.796;2024-02-14T01:36:42;99564.06;;;9.05;100.00
10668;BME280;5382;42.136;24.796;2024-02-14T01:39:10;99589.16;;;9.10;100.00
10668;BME280;5382;42.136;24.796;2024-02-14T01:41:37;99522.31;;;8.86;100.00
10668;BME280;5382;42.136;24.796;2024-02-14T01:44:04;99574.59;;;9.17;100.00
10668;BME280;5382;42.136;24.796;2024-02-14T01:46:32;99564.78;;;9.20;100.00
10668;BME280;5382;42.136;24.796;2024-02-14T01:48:59;99557.63;;;9.09;100.00
10668;BME280;5382;42.136;24.796;2024-02-14T01:51:28;99564.91;;;9.05;100.00
10668;BME280;5382;42.136;24.796;2024-02-14T01:53:57;99566.59;;;9.06;100.00
10668;BME280;5382;42.136;24.796;2024-02-14T01:56:25;99590.66;;;9.14;100.00
10668;BME280;5382;42.136;24.796;2024-02-14T01:58:53;99584.41;;;9.15;100.00
10668;BME280;5382;42.136;24.796;2024-02-14T02:01:20;99568.56;;;9.15;100.00
10668;BME280;5382;42.136;24.796;2024-02-14T02:03:49;99597.72;;;9.14;100.00
10668;BME280;5382;42.136;24.796;2024-02-14T02:06:16;99578.50;;;9.12;100.00
10668;BME280;5382;42.136;24.796;2024-02-14T02:08:44;99568.81;;;9.00;100.00
10668;BME280;5382;42.136;24.796;2024-02-14T02:11:11;99594.22;;;9.13;100.00
10668;BME280;5382;42.136;24.796;2024-02-14T02:13:39;99451.16;;;8.22;100.00
10668;BME280;5382;42.136;24.796;2024-02-14T02:16:06;99596.03;;;9.13;100.00
10668;BME280;5382;42.136;24.796;2024-02-14T02:18:33;99587.91;;;9.03;100.00
10668;BME280;5382;42.136;24.796;2024-02-14T02:21:00;99608.63;;;9.09;100.00
10668;BME280;5382;42.136;24.796;2024-02-14T02:23:30;99606.38;;;9.03;100.00
10668;BME280;5382;42.136;24.796;2024-02-14T02:25:57;99599.84;;;9.09;100.00
10668;BME280;5382;42.136;24.796;2024-02-14T02:28:25;99571.78;;;8.95;100.00
10668;BME280;5382;42.136;24.796;2024-02-14T02:30:53;99594.66;;;9.07;100.00
10668;BME280;5382;42.136;24.796;2024-02-14T02:33:21;99614.19;;;9.17;100.00
10668;BME280;5382;42.136;24.796;2024-02-14T02:35:49;99624.00;;;9.15;100.00
10668;BME280;5382;42.136;24.796;2024-02-14T02:38:16;99619.78;;;9.13;100.00
10668;BME280;5382;42.136;24.796;2024-02-14T02:40:46;99617.69;;;9.05;100.00
10668;BME280;5382;42.136;24.796;2024-02-14T02:43:13;99634.28;;;8.94;100.00
10668;BME280;5382;42.136;24.796;2024-02-14T02:45:40;99626.34;;;8.94;100.00
10668;BME280;5382;42.136;24.796;2024-02-14T02:48:08;99628.91;;;8.96;100.00
10668;BME280;5382;42.136;24.796;2024-02-14T02:50:35;99620.88;;;8.85;100.00
10668;BME280;5382;42.136;24.796;2024-02-14T02:53:02;99637.88;;;8.93;100.00
10668;BME280;5382;42.136;24.796;2024-02-14T02:55:29;99603.34;;;8.84;100.00
10668;BME280;5382;42.136;24.796;2024-02-14T02:57:59;99619.06;;;8.85;100.00
10668;BME280;5382;42.136;24.796;2024-02-14T03:00:26;99635.31;;;8.92;100.00
10668;BME280;5382;42.136;24.796;2024-02-14T03:02:53;99640.91;;;9.00;100.00
10668;BME280;5382;42.136;24.796;2024-02-14T03:05:20;99647.03;;;9.01;100.00
10668;BME280;5382;42.136;24.796;2024-02-14T03:07:49;99653.03;;;9.03;100.00
10668;BME280;5382;42.136;24.796;2024-02-14T03:10:16;99651.38;;;9.02;100.00
10668;BME280;5382;42.136;24.796;2024-02-14T03:12:45;99660.97;;;9.03;100.00
10668;BME280;5382;42.136;24.796;2024-02-14T03:15:14;99655.06;;;8.99;100.00
10668;BME280;5382;42.136;24.796;2024-02-14T03:17:42;99661.19;;;9.00;100.00
10668;BME280;5382;42.136;24.796;2024-02-14T03:20:10;99661.19;;;9.00;100.00
10668;BME280;5382;42.136;24.796;2024-02-14T03:22:39;99666.69;;;8.97;100.00
10668;BME280;5382;42.136;24.796;2024-02-14T03:25:12;99642.28;;;8.80;100.00
10668;BME280;5382;42.136;24.796;2024-02-14T03:27:40;99641.88;;;8.86;100.00
10668;BME280;5382;42.136;24.796;2024-02-14T03:30:07;99675.44;;;8.97;100.00
10668;BME280;5382;42.136;24.796;2024-02-14T03:32:36;99675.75;;;8.92;100.00
10668;BME280;5382;42.136;24.796;2024-02-14T03:35:03;99684.94;;;8.87;100.00
10668;BME280;5382;42.136;24.796;2024-02-14T03:37:32;99649.25;;;8.68;100.00
10668;BME280;5382;42.136;24.796;2024-02-14T03:39:59;99675.00;;;8.78;100.00
10668;BME280;5382;42.136;24.796;2024-02-14T03:42:29;99666.75;;;8.57;100.00
10668;BME280;5382;42.136;24.796;2024-02-14T03:44:56;99691.25;;;8.71;100.00
10668;BME280;5382;42.136;24.796;2024-02-14T03:47:28;99675.19;;;8.74;100.00
10668;BME280;5382;42.136;24.796;2024-02-14T03:49:56;99685.66;;;8.76;100.00
10668;BME280;5382;42.136;24.796;2024-02-14T03:52:23;99696.00;;;8.79;100.00
10668;BME280;5382;42.136;24.796;2024-02-14T03:54:50;99698.94;;;8.74;100.00
10668;BME280;5382;42.136;24.796;2024-02-14T03:57:17;99701.50;;;8.76;100.00
10668;BME280;5382;42.136;24.796;2024-02-14T03:59:44;99686.09;;;8.70;100.00
10668;BME280;5382;42.136;24.796;2024-02-14T04:02:11;99694.19;;;8.80;100.00
10668;BME280;5382;42.136;24.796;2024-02-14T04:04:41;99688.72;;;8.70;100.00
10668;BME280;5382;42.136;24.796;2024-02-14T04:07:10;99708.97;;;8.82;100.00
10668;BME280;5382;42.136;24.796;2024-02-14T04:09:37;99702.41;;;8.75;100.00
10668;BME280;5382;42.136;24.796;2024-02-14T04:12:05;99704.66;;;8.81;100.00
10668;BME280;5382;42.136;24.796;2024-02-14T04:14:32;99677.28;;;8.57;100.00
10668;BME280;5382;42.136;24.796;2024-02-14T04:16:59;99714.47;;;8.79;100.00
10668;BME280;5382;42.136;24.796;2024-02-14T04:19:27;99720.59;;;8.80;100.00
10668;BME280;5382;42.136;24.796;2024-02-14T04:21:54;99719.84;;;8.78;100.00
10668;BME280;5382;42.136;24.796;2024-02-14T04:24:22;99670.94;;;8.46;100.00
10668;BME280;5382;42.136;24.796;2024-02-14T04:26:49;99714.91;;;8.73;100.00
10668;BME280;5382;42.136;24.796;2024-02-14T04:29:16;99737.91;;;8.84;100.00
10668;BME280;5382;42.136;24.796;2024-02-14T04:31:43;99651.50;;;8.35;100.00
10668;BME280;5382;42.136;24.796;2024-02-14T04:34:10;99731.13;;;8.80;100.00
10668;BME280;5382;42.136;24.796;2024-02-14T04:36:39;99734.53;;;8.82;100.00
10668;BME280;5382;42.136;24.796;2024-02-14T04:39:06;99677.47;;;8.41;100.00
10668;BME280;5382;42.136;24.796;2024-02-14T04:41:36;99703.56;;;8.58;100.00
10668;BME280;5382;42.136;24.796;2024-02-14T04:44:04;99706.84;;;8.62;100.00
10668;BME280;5382;42.136;24.796;2024-02-14T04:46:32;99738.84;;;8.83;100.00
10668;BME280;5382;42.136;24.796;2024-02-14T04:49:00;99731.88;;;8.82;100.00
10668;BME280;5382;42.136;24.796;2024-02-14T04:51:28;99698.75;;;8.65;100.00
10668;BME280;5382;42.136;24.796;2024-02-14T04:53:56;99730.50;;;8.76;100.00
10668;BME280;5382;42.136;24.796;2024-02-14T04:56:24;99737.09;;;8.96;100.00
10668;BME280;5382;42.136;24.796;2024-02-14T04:58:53;99745.84;;;8.97;100.00
10668;BME280;5382;42.136;24.796;2024-02-14T05:01:21;99755.44;;;8.98;100.00
10668;BME280;5382;42.136;24.796;2024-02-14T05:03:48;99755.22;;;9.01;100.00
10668;BME280;5382;42.136;24.796;2024-02-14T05:06:16;99713.72;;;8.77;100.00
10668;BME280;5382;42.136;24.796;2024-02-14T05:08:43;99756.28;;;9.11;100.00
10668;BME280;5382;42.136;24.796;2024-02-14T05:11:10;99761.56;;;9.11;100.00
10668;BME280;5382;42.136;24.796;2024-02-14T05:13:37;99740.66;;;8.95;100.00
10668;BME280;5382;42.136;24.796;2024-02-14T05:16:08;99765.16;;;9.10;100.00
10668;BME280;5382;42.136;24.796;2024-02-14T05:18:36;99770.25;;;9.13;100.00
10668;BME280;5382;42.136;24.796;2024-02-14T05:21:05;99767.91;;;9.08;100.00
10668;BME280;5382;42.136;24.796;2024-02-14T05:23:33;99774.06;;;9.09;100.00
10668;BME280;5382;42.136;24.796;2024-02-14T05:26:00;99788.84;;;9.11;100.00
10668;BME280;5382;42.136;24.796;2024-02-14T05:28:27;99646.63;;;8.28;100.00
10668;BME280;5382;42.136;24.796;2024-02-14T05:30:54;99759.44;;;9.03;100.00
10668;BME280;5382;42.136;24.796;2024-02-14T05:33:23;99791.56;;;9.10;100.00
10668;BME280;5382;42.136;24.796;2024-02-14T05:35:50;99752.25;;;8.92;100.00
10668;BME280;5382;42.136;24.796;2024-02-14T05:38:17;99720.38;;;8.70;100.00
10668;BME280;5382;42.136;24.796;2024-02-14T05:40:45;99757.22;;;8.84;100.00
10668;BME280;5382;42.136;24.796;2024-02-14T05:43:12;99791.25;;;9.14;100.00
10668;BME280;5382;42.136;24.796;2024-02-14T05:45:39;99771.94;;;9.01;100.00
10668;BME280;5382;42.136;24.796;2024-02-14T05:48:06;99804.16;;;9.19;100.00
10668;BME280;5382;42.136;24.796;2024-02-14T05:50:35;99801.31;;;9.22;100.00
10668;BME280;5382;42.136;24.796;2024-02-14T05:53:03;99808.16;;;9.12;100.00
10668;BME280;5382;42.136;24.796;2024-02-14T05:55:31;99805.53;;;9.25;100.00
10668;BME280;5382;42.136;24.796;2024-02-14T05:57:59;99779.66;;;9.17;100.00
10668;BME280;5382;42.136;24.796;2024-02-14T06:00:26;99783.56;;;9.11;100.00
10668;BME280;5382;42.136;24.796;2024-02-14T06:02:53;99815.34;;;9.35;100.00
10668;BME280;5382;42.136;24.796;2024-02-14T06:05:20;99828.34;;;9.38;100.00
10668;BME280;5382;42.136;24.796;2024-02-14T06:07:48;99858.44;;;9.36;100.00
10668;BME280;5382;42.136;24.796;2024-02-14T06:10:16;99824.34;;;9.46;100.00
10668;BME280;5382;42.136;24.796;2024-02-14T06:12:43;99838.59;;;9.43;100.00
10668;BME280;5382;42.136;24.796;2024-02-14T06:15:10;99757.16;;;8.99;100.00
10668;BME280;5382;42.136;24.796;2024-02-14T06:17:37;99822.00;;;9.41;100.00
10668;BME280;5382;42.136;24.796;2024-02-14T06:20:05;99837.34;;;9.49;100.00
10668;BME280;5382;42.136;24.796;2024-02-14T06:22:33;99834.69;;;9.49;100.00
10668;BME280;5382;42.136;24.796;2024-02-14T06:25:02;99852.03;;;9.53;100.00
10668;BME280;5382;42.136;24.796;2024-02-14T06:27:30;99840.59;;;9.39;100.00
10668;BME280;5382;42.136;24.796;2024-02-14T06:29:58;99867.00;;;9.52;100.00
10668;BME280;5382;42.136;24.796;2024-02-14T06:32:26;99858.16;;;9.53;100.00
10668;BME280;5382;42.136;24.796;2024-02-14T06:34:53;99866.38;;;9.49;100.00
10668;BME280;5382;42.136;24.796;2024-02-14T06:37:20;99863.66;;;9.50;100.00
10668;BME280;5382;42.136;24.796;2024-02-14T06:39:47;99855.28;;;9.56;100.00
10668;BME280;5382;42.136;24.796;2024-02-14T06:42:17;99803.94;;;9.22;100.00
10668;BME280;5382;42.136;24.796;2024-02-14T06:44:45;99876.88;;;9.63;100.00
10668;BME280;5382;42.136;24.796;2024-02-14T06:47:12;99859.09;;;9.65;100.00
10668;BME280;5382;42.136;24.796;2024-02-14T06:49:39;99865.34;;;9.64;100.00
10668;BME280;5382;42.136;24.796;2024-02-14T06:52:06;99878.88;;;9.72;100.00
10668;BME280;5382;42.136;24.796;2024-02-14T06:54:33;99882.47;;;9.71;100.00
10668;BME280;5382;42.136;24.796;2024-02-14T06:57:00;99899.59;;;9.78;100.00
10668;BME280;5382;42.136;24.796;2024-02-14T06:59:28;99906.56;;;9.79;100.00
10668;BME280;5382;42.136;24.796;2024-02-14T07:01:55;99882.25;;;9.74;100.00
10668;BME280;5382;42.136;24.796;2024-02-14T07:04:22;99883.53;;;9.81;100.00
10668;BME280;5382;42.136;24.796;2024-02-14T07:06:52;99896.84;;;9.80;100.00
10668;BME280;5382;42.136;24.796;2024-02-14T07:09:19;99902.56;;;9.74;100.00
10668;BME280;5382;42.136;24.796;2024-02-14T07:11:46;99908.06;;;9.83;100.00
10668;BME280;5382;42.136;24.796;2024-02-14T07:14:13;99898.13;;;9.87;100.00
10668;BME280;5382;42.136;24.796;2024-02-14T07:16:42;99897.06;;;9.90;100.00
10668;BME280;5382;42.136;24.796;2024-02-14T07:19:09;99909.97;;;9.81;100.00
10668;BME280;5382;42.136;24.796;2024-02-14T07:21:35;99910.56;;;9.85;100.00
10668;BME280;5382;42.136;24.796;2024-02-14T07:24:04;99926.66;;;9.82;100.00
10668;BME280;5382;42.136;24.796;2024-02-14T07:26:31;99912.28;;;9.86;100.00
10668;BME280;5382;42.136;24.796;2024-02-14T07:28:58;99930.03;;;9.84;100.00
10668;BME280;5382;42.136;24.796;2024-02-14T07:31:28;99934.78;;;9.79;100.00
10668;BME280;5382;42.136;24.796;2024-02-14T07:33:58;99939.09;;;9.67;100.00
10668;BME280;5382;42.136;24.796;2024-02-14T07:36:25;99930.63;;;9.62;100.00
10668;BME280;5382;42.136;24.796;2024-02-14T07:38:52;99939.75;;;9.58;100.00
10668;BME280;5382;42.136;24.796;2024-02-14T07:41:19;99943.31;;;9.57;100.00
10668;BME280;5382;42.136;24.796;2024-02-14T07:43:46;99954.19;;;9.52;100.00
10668;BME280;5382;42.136;24.796;2024-02-14T07:46:17;99950.31;;;9.58;100.00
10668;BME280;5382;42.136;24.796;2024-02-14T07:48:44;99966.16;;;9.58;100.00
10668;BME280;5382;42.136;24.796;2024-02-14T07:51:12;99946.38;;;9.51;100.00
10668;BME280;5382;42.136;24.796;2024-02-14T07:53:39;99959.91;;;9.59;100.00
10668;BME280;5382;42.136;24.796;2024-02-14T07:56:07;99945.66;;;9.61;100.00
10668;BME280;5382;42.136;24.796;2024-02-14T07:58:34;99946.28;;;9.65;100.00
10668;BME280;5382;42.136;24.796;2024-02-14T08:01:01;99952.22;;;9.69;100.00
10668;BME280;5382;42.136;24.796;2024-02-14T08:03:29;99985.41;;;9.73;100.00
10668;BME280;5382;42.136;24.796;2024-02-14T08:05:56;99966.19;;;9.71;100.00
10668;BME280;5382;42.136;24.796;2024-02-14T08:08:26;99959.19;;;9.70;100.00
10668;BME280;5382;42.136;24.796;2024-02-14T08:10:53;99964.91;;;9.76;100.00
10668;BME280;5382;42.136;24.796;2024-02-14T08:13:20;99967.25;;;9.81;100.00
10668;BME280;5382;42.136;24.796;2024-02-14T08:15:48;99964.69;;;9.79;100.00
10668;BME280;5382;42.136;24.796;2024-02-14T08:18:15;99972.94;;;9.88;100.00
10668;BME280;5382;42.136;24.796;2024-02-14T08:20:42;99969.47;;;9.87;100.00
10668;BME280;5382;42.136;24.796;2024-02-14T08:23:09;99968.63;;;9.87;100.00
10668;BME280;5382;42.136;24.796;2024-02-14T08:25:37;99979.94;;;9.89;100.00
10668;BME280;5382;42.136;24.796;2024-02-14T08:28:06;99993.66;;;9.94;100.00
10668;BME280;5382;42.136;24.796;2024-02-14T08:30:34;99987.22;;;9.85;100.00
10668;BME280;5382;42.136;24.796;2024-02-14T08:33:01;100005.84;;;9.83;100.00
10668;BME280;5382;42.136;24.796;2024-02-14T08:35:28;99993.69;;;9.81;100.00
10668;BME280;5382;42.136;24.796;2024-02-14T08:37:54;99980.13;;;9.86;100.00
10668;BME280;5382;42.136;24.796;2024-02-14T08:40:22;100013.75;;;9.96;100.00
10668;BME280;5382;42.136;24.796;2024-02-14T08:42:50;100008.91;;;9.90;100.00
10668;BME280;5382;42.136;24.796;2024-02-14T08:45:17;99998.97;;;9.94;100.00
10668;BME280;5382;42.136;24.796;2024-02-14T08:47:44;100005.97;;;9.95;100.00
10668;BME280;5382;42.136;24.796;2024-02-14T08:50:11;100018.53;;;10.04;100.00
10668;BME280;5382;42.136;24.796;2024-02-14T08:52:39;99998.44;;;10.01;100.00
10668;BME280;5382;42.136;24.796;2024-02-14T08:55:06;100012.31;;;10.05;100.00
10668;BME280;5382;42.136;24.796;2024-02-14T08:57:40;100007.56;;;10.10;100.00
10668;BME280;5382;42.136;24.796;2024-02-14T09:00:09;100008.31;;;10.12;100.00
10668;BME280;5382;42.136;24.796;2024-02-14T09:02:40;100020.13;;;10.19;100.00
10668;BME280;5382;42.136;24.796;2024-02-14T09:05:08;100019.28;;;10.19;100.00
10668;BME280;5382;42.136;24.796;2024-02-14T09:07:35;100025.13;;;10.24;100.00
10668;BME280;5382;42.136;24.796;2024-02-14T09:10:03;100029.88;;;10.19;100.00
10668;BME280;5382;42.136;24.796;2024-02-14T09:12:31;100037.84;;;10.32;100.00
10668;BME280;5382;42.136;24.796;2024-02-14T09:14:59;100027.66;;;10.25;100.00
10668;BME280;5382;42.136;24.796;2024-02-14T09:17:27;100042.91;;;10.35;100.00
10668;BME280;5382;42.136;24.796;2024-02-14T09:19:54;100049.59;;;10.28;100.00
10668;BME280;5382;42.136;24.796;2024-02-14T09:22:21;100037.81;;;10.19;100.00
10668;BME280;5382;42.136;24.796;2024-02-14T09:24:48;100037.97;;;10.30;100.00
10668;BME280;5382;42.136;24.796;2024-02-14T09:27:15;100036.44;;;10.26;100.00
10668;BME280;5382;42.136;24.796;2024-02-14T09:29:42;100034.56;;;10.28;100.00
10668;BME280;5382;42.136;24.796;2024-02-14T09:32:09;99973.94;;;9.99;100.00
10668;BME280;5382;42.136;24.796;2024-02-14T09:34:37;100040.16;;;10.23;100.00
10668;BME280;5382;42.136;24.796;2024-02-14T09:37:04;100035.38;;;10.16;100.00
10668;BME280;5382;42.136;24.796;2024-02-14T09:39:32;100018.66;;;10.15;100.00
10668;BME280;5382;42.136;24.796;2024-02-14T09:42:07;100019.25;;;10.33;100.00
10668;BME280;5382;42.136;24.796;2024-02-14T09:44:36;100026.53;;;10.42;100.00
10668;BME280;5382;42.136;24.796;2024-02-14T09:47:05;100023.78;;;10.31;100.00
10668;BME280;5382;42.136;24.796;2024-02-14T09:49:32;100021.66;;;10.36;100.00
10668;BME280;5382;42.136;24.796;2024-02-14T09:52:03;100030.66;;;10.46;100.00
10668;BME280;5382;42.136;24.796;2024-02-14T09:54:31;100019.56;;;10.29;100.00
10668;BME280;5382;42.136;24.796;2024-02-14T09:57:00;100023.53;;;10.21;100.00
10668;BME280;5382;42.136;24.796;2024-02-14T09:59:29;100008.50;;;10.09;100.00
10668;BME280;5382;42.136;24.796;2024-02-14T10:01:57;100006.06;;;10.19;100.00
10668;BME280;5382;42.136;24.796;2024-02-14T10:04:24;100016.97;;;10.27;100.00
10668;BME280;5382;42.136;24.796;2024-02-14T10:06:51;100023.75;;;10.18;100.00
10668;BME280;5382;42.136;24.796;2024-02-14T10:09:22;100027.66;;;10.25;100.00
10668;BME280;5382;42.136;24.796;2024-02-14T10:11:51;100016.06;;;10.28;100.00
10668;BME280;5382;42.136;24.796;2024-02-14T10:14:18;100032.97;;;10.25;100.00
10668;BME280;5382;42.136;24.796;2024-02-14T10:16:45;100022.69;;;10.21;100.00
10668;BME280;5382;42.136;24.796;2024-02-14T10:19:15;100034.75;;;10.12;100.00
10668;BME280;5382;42.136;24.796;2024-02-14T10:21:43;100022.47;;;10.24;100.00
10668;BME280;5382;42.136;24.796;2024-02-14T10:24:10;100020.38;;;10.29;100.00
10668;BME280;5382;42.136;24.796;2024-02-14T10:26:38;100027.97;;;10.21;100.00
10668;BME280;5382;42.136;24.796;2024-02-14T10:29:06;100027.47;;;10.29;100.00
10668;BME280;5382;42.136;24.796;2024-02-14T10:31:36;100036.97;;;10.18;100.00
10668;BME280;5382;42.136;24.796;2024-02-14T10:34:04;100033.16;;;10.22;100.00
10668;BME280;5382;42.136;24.796;2024-02-14T10:36:33;100022.94;;;10.31;100.00
10668;BME280;5382;42.136;24.796;2024-02-14T10:39:01;100021.03;;;10.33;100.00
10668;BME280;5382;42.136;24.796;2024-02-14T10:41:30;100022.81;;;10.32;100.00
10668;BME280;5382;42.136;24.796;2024-02-14T10:44:02;100005.06;;;10.34;100.00
10668;BME280;5382;42.136;24.796;2024-02-14T10:46:32;99978.69;;;10.20;100.00
10668;BME280;5382;42.136;24.796;2024-02-14T10:49:03;99990.00;;;10.22;100.00
10668;BME280;5382;42.136;24.796;2024-02-14T10:51:31;100005.72;;;10.38;100.00
10668;BME280;5382;42.136;24.796;2024-02-14T10:54:00;99974.88;;;10.24;100.00
10668;BME280;5382;42.136;24.796;2024-02-14T10:56:31;100023.16;;;10.40;100.00
10668;BME280;5382;42.136;24.796;2024-02-14T10:59:00;100026.00;;;10.50;100.00
10668;BME280;5382;42.136;24.796;2024-02-14T11:01:29;99991.22;;;10.31;100.00
10668;BME280;5382;42.136;24.796;2024-02-14T11:03:59;100000.16;;;10.66;100.00
10668;BME280;5382;42.136;24.796;2024-02-14T11:06:28;100017.81;;;10.79;100.00
10668;BME280;5382;42.136;24.796;2024-02-14T11:08:56;100009.44;;;10.85;100.00
10668;BME280;5382;42.136;24.796;2024-02-14T11:11:24;99993.84;;;10.93;100.00
10668;BME280;5382;42.136;24.796;2024-02-14T11:13:53;100025.03;;;11.13;100.00
10668;BME280;5382;42.136;24.796;2024-02-14T11:16:24;100016.78;;;11.18;100.00
10668;BME280;5382;42.136;24.796;2024-02-14T11:19:05;99998.09;;;11.20;100.00
10668;BME280;5382;42.136;24.796;2024-02-14T11:21:36;99989.25;;;11.32;100.00
10668;BME280;5382;42.136;24.796;2024-02-14T11:24:07;100003.00;;;11.37;100.00
10668;BME280;5382;42.136;24.796;2024-02-14T11:26:45;100002.00;;;11.51;100.00
10668;BME280;5382;42.136;24.796;2024-02-14T11:29:14;99995.00;;;11.50;100.00
10668;BME280;5382;42.136;24.796;2024-02-14T11:31:42;100000.63;;;12.05;100.00
10668;BME280;5382;42.136;24.796;2024-02-14T11:34:11;100005.63;;;12.88;100.00
10668;BME280;5382;42.136;24.796;2024-02-14T11:36:38;99984.78;;;13.38;100.00
10668;BME280;5382;42.136;24.796;2024-02-14T11:39:07;100016.56;;;14.14;94.75
10668;BME280;5382;42.136;24.796;2024-02-14T11:41:34;100014.19;;;14.11;91.51
10668;BME280;5382;42.136;24.796;2024-02-14T11:44:02;99987.25;;;13.83;91.86
10668;BME280;5382;42.136;24.796;2024-02-14T11:46:30;99962.47;;;13.62;92.58
10668;BME280;5382;42.136;24.796;2024-02-14T11:48:58;100000.59;;;13.40;94.51
10668;BME280;5382;42.136;24.796;2024-02-14T11:51:28;99988.44;;;13.37;95.90
10668;BME280;5382;42.136;24.796;2024-02-14T11:53:56;99998.81;;;13.18;95.26
10668;BME280;5382;42.136;24.796;2024-02-14T11:56:24;99991.41;;;12.89;97.33
10668;BME280;5382;42.136;24.796;2024-02-14T11:58:51;99975.84;;;12.73;97.97
10668;BME280;5382;42.136;24.796;2024-02-14T12:01:19;100005.28;;;12.48;99.29
10668;BME280;5382;42.136;24.796;2024-02-14T12:03:46;100006.59;;;12.31;100.00
10668;BME280;5382;42.136;24.796;2024-02-14T12:06:13;100004.78;;;12.31;100.00
10668;BME280;5382;42.136;24.796;2024-02-14T12:08:42;100009.59;;;12.15;100.00
10668;BME280;5382;42.136;24.796;2024-02-14T12:11:10;100014.47;;;11.97;100.00
10668;BME280;5382;42.136;24.796;2024-02-14T12:13:37;99988.22;;;12.05;100.00
10668;BME280;5382;42.136;24.796;2024-02-14T12:16:08;99982.22;;;11.79;100.00
10668;BME280;5382;42.136;24.796;2024-02-14T12:18:37;99979.56;;;12.14;100.00
10668;BME280;5382;42.136;24.796;2024-02-14T12:21:06;100008.53;;;12.51;100.00
10668;BME280;5382;42.136;24.796;2024-02-14T12:23:34;99995.28;;;12.40;100.00
10668;BME280;5382;42.136;24.796;2024-02-14T12:26:03;99962.06;;;12.79;100.00
10668;BME280;5382;42.136;24.796;2024-02-14T12:28:31;99997.84;;;13.94;100.00
10668;BME280;5382;42.136;24.796;2024-02-14T12:30:58;99972.75;;;14.70;96.37
10668;BME280;5382;42.136;24.796;2024-02-14T12:33:26;99991.53;;;14.47;95.44
10668;BME280;5382;42.136;24.796;2024-02-14T12:35:55;100000.00;;;14.83;88.55
10668;BME280;5382;42.136;24.796;2024-02-14T12:38:24;100011.81;;;14.90;84.21
10668;BME280;5382;42.136;24.796;2024-02-14T12:40:51;100003.94;;;15.87;79.29
10668;BME280;5382;42.136;24.796;2024-02-14T12:43:20;100008.75;;;16.41;74.02
10668;BME280;5382;42.136;24.796;2024-02-14T12:45:47;99904.69;;;15.55;78.25
10668;BME280;5382;42.136;24.796;2024-02-14T12:48:22;99975.16;;;15.91;81.05
10668;BME280;5382;42.136;24.796;2024-02-14T12:50:49;99972.19;;;16.51;78.98
10668;BME280;5382;42.136;24.796;2024-02-14T12:53:17;99979.56;;;16.29;76.90
10668;BME280;5382;42.136;24.796;2024-02-14T12:55:45;99958.03;;;15.94;80.05
10668;BME280;5382;42.136;24.796;2024-02-14T12:58:13;99989.22;;;15.74;79.05